createdAt,value
2018-08-07T00:00:33.458Z,100.00
2018-08-07T00:03:02.189Z,100.00
2018-08-07T00:05:30.918Z,100.00
2018-08-07T00:07:59.654Z,100.00
2018-08-07T00:10:28.349Z,100.00
2018-08-07T00:12:57.077Z,100.00
2018-08-07T00:15:27.562Z,100.00
2018-08-07T00:17:56.308Z,100.00
2018-08-07T00:20:25.057Z,100.00
2018-08-07T00:22:53.766Z,100.00
2018-08-07T00:25:22.470Z,100.00
2018-08-07T00:27:51.200Z,100.00
2018-08-07T00:30:19.893Z,100.00
2018-08-07T00:32:48.622Z,100.00
2018-08-07T00:35:18.717Z,100.00
2018-08-07T00:37:47.842Z,100.00
2018-08-07T00:40:17.632Z,100.00
2018-08-07T00:42:46.835Z,100.00
2018-08-07T00:45:21.327Z,100.00
2018-08-07T00:47:50.550Z,100.00
2018-08-07T00:50:20.905Z,100.00
2018-08-07T00:52:50.587Z,100.00
2018-08-07T00:55:19.959Z,100.00
2018-08-07T00:57:49.261Z,100.00
2018-08-07T01:00:18.013Z,100.00
2018-08-07T01:02:46.748Z,100.00
2018-08-07T01:05:17.380Z,100.00
2018-08-07T01:07:46.092Z,100.00
2018-08-07T01:10:16.500Z,100.00
2018-08-07T01:12:45.200Z,100.00
2018-08-07T01:15:16.190Z,100.00
2018-08-07T01:17:45.442Z,100.00
2018-08-07T01:20:18.540Z,100.00
2018-08-07T01:22:47.245Z,100.00
2018-08-07T01:25:20.988Z,100.00
2018-08-07T01:27:49.688Z,100.00
2018-08-07T01:30:28.846Z,100.00
2018-08-07T01:32:57.855Z,100.00
2018-08-07T01:35:27.625Z,100.00
2018-08-07T01:37:56.348Z,100.00
2018-08-07T01:40:25.153Z,100.00
2018-08-07T01:42:53.901Z,100.00
2018-08-07T01:45:22.637Z,100.00
2018-08-07T01:47:51.345Z,100.00
2018-08-07T01:50:20.075Z,100.00
2018-08-07T01:52:48.794Z,100.00
2018-08-07T01:55:25.977Z,100.00
2018-08-07T01:57:54.664Z,100.00
2018-08-07T02:00:23.522Z,100.00
2018-08-07T02:02:52.448Z,100.00
2018-08-07T02:05:21.168Z,100.00
2018-08-07T02:07:49.852Z,100.00
2018-08-07T02:10:19.488Z,100.00
2018-08-07T02:12:48.190Z,100.00
2018-08-07T02:15:17.312Z,100.00
2018-08-07T02:17:46.009Z,100.00
2018-08-07T02:20:15.953Z,100.00
2018-08-07T02:22:45.181Z,100.00
2018-08-07T02:25:16.209Z,100.00
2018-08-07T02:27:45.791Z,100.00
2018-08-07T02:30:15.438Z,100.00
2018-08-07T02:32:44.252Z,100.00
2018-08-07T02:35:14.363Z,100.00
2018-08-07T02:37:44.052Z,100.00
2018-08-07T02:40:14.025Z,100.00
2018-08-07T02:42:43.442Z,100.00
2018-08-07T02:45:15.175Z,100.00
2018-08-07T02:47:44.921Z,100.00
2018-08-07T02:50:16.090Z,100.00
2018-08-07T02:52:44.830Z,100.00
2018-08-07T02:55:13.570Z,100.00
2018-08-07T02:57:42.857Z,100.00
2018-08-07T03:00:16.970Z,100.00
2018-08-07T03:02:46.109Z,100.00
2018-08-07T03:05:14.905Z,100.00
2018-08-07T03:07:44.029Z,100.00
2018-08-07T03:10:12.840Z,100.00
2018-08-07T03:12:41.562Z,100.00
2018-08-07T03:15:15.857Z,100.00
2018-08-07T03:17:45.578Z,100.00
2018-08-07T03:20:14.398Z,100.00
2018-08-07T03:22:43.113Z,100.00
2018-08-07T03:25:12.988Z,100.00
2018-08-07T03:27:42.353Z,100.00
2018-08-07T03:30:13.903Z,100.00
2018-08-07T03:32:42.914Z,100.00
2018-08-07T03:35:11.650Z,100.00
2018-08-07T03:37:40.829Z,100.00
2018-08-07T03:40:12.902Z,100.00
2018-08-07T03:42:41.601Z,100.00
2018-08-07T03:45:12.402Z,100.00
2018-08-07T03:47:41.154Z,100.00
2018-08-07T03:50:10.671Z,100.00
2018-08-07T03:52:39.424Z,98.40
2018-08-07T03:55:11.668Z,97.06
2018-08-07T03:57:41.057Z,93.49
2018-08-07T04:00:16.271Z,86.38
2018-08-07T04:02:45.168Z,81.38
2018-08-07T04:05:13.986Z,77.63
2018-08-07T04:07:42.885Z,71.88
2018-08-07T04:10:13.782Z,69.95
2018-08-07T04:12:42.524Z,67.43
2018-08-07T04:15:13.002Z,65.02
2018-08-07T04:17:42.226Z,63.21
2018-08-07T04:20:13.479Z,61.41
2018-08-07T04:22:42.244Z,59.01
2018-08-07T04:25:11.079Z,58.29
2018-08-07T04:27:39.821Z,57.73
2018-08-07T04:30:10.852Z,55.11
2018-08-07T04:32:39.884Z,53.67
2018-08-07T04:35:08.619Z,50.25
2018-08-07T04:37:37.525Z,51.11
2018-08-07T04:40:07.162Z,48.59
2018-08-07T04:42:39.005Z,47.65
2018-08-07T04:45:12.102Z,45.31
2018-08-07T04:47:40.868Z,43.05
2018-08-07T04:50:10.267Z,43.03
2018-08-07T04:52:39.299Z,40.58
2018-08-07T04:55:08.953Z,40.33
2018-08-07T04:57:37.737Z,38.94
2018-08-07T05:00:10.301Z,39.18
2018-08-07T05:02:39.162Z,40.82
2018-08-07T05:05:14.493Z,41.98
2018-08-07T05:07:43.286Z,39.44
2018-08-07T05:10:14.460Z,39.65
2018-08-07T05:12:44.024Z,40.03
2018-08-07T05:15:13.090Z,39.71
2018-08-07T05:17:42.913Z,38.95
2018-08-07T05:20:11.693Z,37.96
2018-08-07T05:22:40.848Z,36.94
2018-08-07T05:25:11.026Z,38.00
2018-08-07T05:27:39.921Z,39.60
2018-08-07T05:30:10.471Z,39.81
2018-08-07T05:32:39.206Z,39.46
2018-08-07T05:35:08.736Z,39.77
2018-08-07T05:37:37.619Z,38.44
2018-08-07T05:40:06.999Z,37.88
2018-08-07T05:42:35.768Z,37.51
2018-08-07T05:45:05.558Z,36.44
2018-08-07T05:47:34.313Z,36.79
2018-08-07T05:50:03.195Z,36.80
2018-08-07T05:52:31.885Z,35.60
2018-08-07T05:55:00.639Z,34.34
2018-08-07T05:57:29.493Z,32.50
2018-08-07T05:59:58.224Z,32.08
2018-08-07T06:02:26.961Z,30.77
2018-08-07T06:04:56.082Z,32.65
2018-08-07T06:07:24.790Z,30.49
2018-08-07T06:09:53.545Z,30.16
2018-08-07T06:12:22.274Z,31.91
2018-08-07T06:14:51.217Z,29.63
2018-08-07T06:17:20.025Z,28.98
2018-08-07T06:19:48.808Z,29.54
2018-08-07T06:22:17.570Z,28.27
2018-08-07T06:24:46.295Z,28.58
2018-08-07T06:27:15.154Z,29.61
2018-08-07T06:29:43.884Z,27.67
2018-08-07T06:32:12.665Z,28.86
2018-08-07T06:34:41.419Z,28.47
2018-08-07T06:37:10.121Z,29.08
2018-08-07T06:39:38.813Z,28.14
2018-08-07T06:42:07.588Z,28.57
2018-08-07T06:44:39.401Z,28.44
2018-08-07T06:47:08.336Z,28.17
2018-08-07T06:49:37.071Z,28.32
2018-08-07T06:52:05.798Z,27.34
2018-08-07T06:54:34.554Z,28.61
2018-08-07T06:57:03.469Z,26.80
2018-08-07T06:59:32.642Z,29.59
2018-08-07T07:02:01.370Z,27.85
2018-08-07T07:04:30.211Z,28.76
2018-08-07T07:06:58.968Z,28.28
2018-08-07T07:09:27.761Z,26.04
2018-08-07T07:11:56.566Z,26.21
2018-08-07T07:14:25.301Z,27.02
2018-08-07T07:16:54.020Z,26.42
2018-08-07T07:19:22.754Z,26.98
2018-08-07T07:21:51.514Z,26.91
2018-08-07T07:24:20.304Z,27.84
2018-08-07T07:26:49.051Z,26.14
2018-08-07T07:29:17.815Z,27.34
2018-08-07T07:31:46.582Z,26.49
2018-08-07T07:34:15.357Z,25.59
2018-08-07T07:36:44.133Z,28.60
2018-08-07T07:39:12.886Z,26.75
2018-08-07T07:41:41.598Z,25.76
2018-08-07T07:44:10.412Z,25.89
2018-08-07T07:46:39.192Z,26.75
2018-08-07T07:49:08.355Z,27.43
2018-08-07T07:51:37.092Z,27.46
2018-08-07T07:54:05.916Z,25.83
2018-08-07T07:56:34.884Z,27.71
2018-08-07T07:59:03.638Z,28.12
2018-08-07T08:01:32.355Z,29.01
2018-08-07T08:04:01.085Z,27.71
2018-08-07T08:06:30.378Z,27.00
2018-08-07T08:08:59.243Z,29.09
2018-08-07T08:11:29.717Z,31.20
2018-08-07T08:14:00.272Z,28.43
2018-08-07T08:16:31.559Z,27.79
2018-08-07T08:19:04.234Z,28.28
2018-08-07T08:21:35.229Z,26.13
2018-08-07T08:24:06.026Z,27.49
2018-08-07T08:26:37.486Z,27.71
2018-08-07T08:29:09.300Z,28.00
2018-08-07T08:31:40.814Z,28.93
2018-08-07T08:34:12.259Z,27.70
2018-08-07T08:36:44.070Z,28.27
2018-08-07T08:39:18.591Z,31.32
2018-08-07T08:41:50.563Z,31.68
2018-08-07T08:44:22.317Z,31.07
2018-08-07T08:46:51.219Z,30.91
2018-08-07T08:49:20.078Z,31.73
2018-08-07T08:51:48.822Z,29.30
2018-08-07T08:54:17.559Z,28.08
2018-08-07T08:56:46.411Z,29.62
2018-08-07T08:59:15.257Z,29.40
2018-08-07T09:01:43.985Z,28.58
2018-08-07T09:04:12.738Z,28.94
2018-08-07T09:06:41.472Z,29.84
2018-08-07T09:09:12.641Z,30.60
2018-08-07T09:11:41.526Z,29.66
2018-08-07T09:14:11.377Z,30.10
2018-08-07T09:16:40.497Z,28.40
2018-08-07T09:19:09.329Z,25.90
2018-08-07T09:21:38.660Z,25.17
2018-08-07T09:24:07.919Z,24.25
2018-08-07T09:26:36.682Z,26.53
2018-08-07T09:29:05.490Z,25.59
2018-08-07T09:31:34.555Z,25.59
2018-08-07T09:34:03.297Z,24.45
2018-08-07T09:36:32.051Z,26.56
2018-08-07T09:39:00.777Z,26.24
2018-08-07T09:41:29.531Z,25.10
2018-08-07T09:43:58.276Z,26.08
2018-08-07T09:46:27.053Z,25.73
2018-08-07T09:48:55.829Z,22.74
2018-08-07T09:51:24.541Z,22.37
2018-08-07T09:53:53.285Z,22.12
2018-08-07T09:56:22.015Z,22.23
2018-08-07T09:58:50.773Z,25.33
2018-08-07T10:01:24.641Z,24.46
2018-08-07T10:03:53.345Z,26.57
2018-08-07T10:06:22.246Z,25.96
2018-08-07T10:08:50.985Z,28.33
2018-08-07T10:11:19.755Z,26.55
2018-08-07T10:13:48.498Z,26.22
2018-08-07T10:16:17.250Z,27.93
2018-08-07T10:18:45.969Z,25.83
2018-08-07T10:21:14.679Z,27.01
2018-08-07T10:23:43.401Z,29.35
2018-08-07T10:26:12.125Z,30.54
2018-08-07T10:28:40.854Z,27.28
2018-08-07T10:31:09.847Z,26.01
2018-08-07T10:33:38.758Z,24.83
2018-08-07T10:36:07.556Z,24.63
2018-08-07T10:38:36.330Z,26.46
2018-08-07T10:41:05.217Z,27.82
2018-08-07T10:43:33.963Z,27.35
2018-08-07T10:46:02.775Z,26.98
2018-08-07T10:48:31.589Z,24.16
2018-08-07T10:51:00.592Z,24.88
2018-08-07T10:53:29.423Z,24.74
2018-08-07T10:55:58.151Z,25.20
2018-08-07T10:58:26.980Z,26.11
2018-08-07T11:00:55.745Z,29.87
2018-08-07T11:03:24.499Z,27.32
2018-08-07T11:05:53.452Z,27.48
2018-08-07T11:08:22.213Z,25.50
2018-08-07T11:10:51.008Z,22.70
2018-08-07T11:13:19.757Z,24.71
2018-08-07T11:15:48.487Z,27.17
2018-08-07T11:18:17.228Z,29.60
2018-08-07T11:20:45.999Z,30.45
2018-08-07T11:23:14.814Z,28.29
2018-08-07T11:25:43.573Z,27.44
2018-08-07T11:28:12.360Z,27.18
2018-08-07T11:30:41.108Z,24.45
2018-08-07T11:33:09.894Z,24.11
2018-08-07T11:35:38.651Z,23.17
2018-08-07T11:38:07.442Z,21.06
2018-08-07T11:40:36.179Z,19.54
2018-08-07T11:43:04.931Z,19.17
2018-08-07T11:45:34.109Z,18.10
2018-08-07T11:48:03.016Z,20.40
2018-08-07T11:50:32.799Z,21.93
2018-08-07T11:53:02.415Z,21.38
2018-08-07T11:55:31.601Z,21.71
2018-08-07T11:58:00.830Z,24.59
2018-08-07T12:00:32.482Z,22.03
2018-08-07T12:03:01.303Z,23.28
2018-08-07T12:05:30.080Z,22.48
2018-08-07T12:07:58.914Z,21.91
2018-08-07T12:10:27.718Z,21.50
2018-08-07T12:12:56.472Z,19.36
2018-08-07T12:15:25.965Z,18.74
2018-08-07T12:17:54.958Z,20.11
2018-08-07T12:20:23.742Z,20.77
2018-08-07T12:22:52.938Z,22.40
2018-08-07T12:25:21.934Z,21.61
2018-08-07T12:27:50.990Z,21.06
2018-08-07T12:37:07.892Z,22.19
2018-08-07T12:39:36.685Z,22.14
2018-08-07T12:42:05.552Z,22.84
2018-08-07T12:44:34.369Z,21.04
2018-08-07T12:47:03.227Z,22.18
2018-08-07T12:49:32.091Z,23.20
2018-08-07T12:52:00.809Z,22.91
2018-08-07T12:54:29.622Z,21.70
2018-08-07T12:56:58.354Z,22.22
2018-08-07T12:59:28.093Z,24.93
2018-08-07T13:01:57.088Z,27.19
2018-08-07T13:04:25.878Z,27.48
2018-08-07T13:06:54.695Z,28.22
2018-08-07T13:09:23.600Z,27.93
2018-08-07T13:11:52.565Z,29.04
2018-08-07T13:14:21.401Z,29.93
2018-08-07T13:16:50.206Z,31.35
2018-08-07T13:19:19.031Z,32.25
2018-08-07T13:21:47.816Z,31.61
2018-08-07T13:24:16.566Z,33.75
2018-08-07T13:26:45.311Z,32.72
2018-08-07T13:29:14.055Z,32.95
2018-08-07T13:31:42.858Z,33.54
2018-08-07T13:34:11.660Z,29.89
2018-08-07T13:36:40.491Z,30.02
2018-08-07T13:39:10.565Z,29.10
2018-08-07T13:41:39.321Z,30.44
2018-08-07T13:44:08.807Z,29.96
2018-08-07T13:46:37.703Z,30.03
2018-08-07T13:49:06.865Z,31.78
2018-08-07T13:51:35.641Z,30.91
2018-08-07T13:54:04.448Z,33.22
2018-08-07T13:56:33.239Z,33.13
2018-08-07T13:59:02.076Z,33.83
2018-08-07T14:01:31.372Z,35.10
2018-08-07T14:04:00.107Z,33.25
2018-08-07T14:06:28.877Z,31.92
2018-08-07T14:08:57.791Z,32.41
2018-08-07T14:11:26.569Z,32.06
2018-08-07T14:13:55.467Z,30.92
2018-08-07T14:16:24.739Z,33.85
2018-08-07T14:18:53.772Z,36.45
2018-08-07T14:21:22.993Z,38.10
2018-08-07T14:23:52.309Z,39.28
2018-08-07T14:26:21.366Z,41.95
2018-08-07T14:28:50.390Z,43.48
2018-08-07T14:31:19.594Z,44.35
2018-08-07T14:33:48.816Z,45.00
2018-08-07T14:36:18.089Z,44.42
2018-08-07T14:38:47.358Z,44.32
2018-08-07T14:41:16.693Z,45.02
2018-08-07T14:43:45.963Z,45.12
2018-08-07T14:46:15.603Z,45.32
2018-08-07T14:48:44.875Z,45.51
2018-08-07T14:51:14.232Z,46.87
2018-08-07T14:53:42.997Z,46.38
2018-08-07T14:56:11.755Z,46.48
2018-08-07T14:58:40.840Z,47.41
2018-08-07T15:01:09.587Z,49.09
2018-08-07T15:03:38.342Z,49.22
2018-08-07T15:06:07.090Z,49.46
2018-08-07T15:08:35.826Z,49.09
2018-08-07T15:11:04.759Z,49.78
2018-08-07T15:13:33.520Z,50.01
2018-08-07T15:16:02.252Z,49.85
2018-08-07T15:18:30.992Z,50.60
2018-08-07T15:20:59.730Z,48.60
2018-08-07T15:23:28.495Z,48.40
2018-08-07T15:25:57.211Z,48.00
2018-08-07T15:28:25.906Z,49.04
2018-08-07T15:30:54.868Z,49.61
2018-08-07T15:33:23.586Z,47.62
2018-08-07T15:35:52.350Z,47.62
2018-08-07T15:38:21.891Z,48.89
2018-08-07T15:40:50.582Z,47.87
2018-08-07T15:43:19.282Z,48.36
2018-08-07T15:45:49.809Z,49.41
2018-08-07T15:48:18.613Z,51.22
2018-08-07T15:50:47.354Z,50.69
2018-08-07T15:53:16.101Z,51.09
2018-08-07T15:55:44.856Z,50.68
2018-08-07T15:58:13.641Z,50.38
2018-08-07T16:00:43.624Z,50.58
2018-08-07T16:03:13.074Z,52.01
2018-08-07T16:05:41.818Z,51.71
2018-08-07T16:08:10.544Z,52.46
2018-08-07T16:10:39.267Z,52.11
2018-08-07T16:13:08.058Z,52.62
2018-08-07T16:15:36.822Z,52.85
2018-08-07T16:18:06.645Z,53.22
2018-08-07T16:20:35.398Z,54.57
2018-08-07T16:23:04.117Z,53.73
2018-08-07T16:25:32.982Z,54.87
2018-08-07T16:28:01.715Z,54.98
2018-08-07T16:30:30.519Z,55.45
2018-08-07T16:32:59.294Z,54.68
2018-08-07T16:35:28.107Z,55.50
2018-08-07T16:37:56.868Z,56.86
2018-08-07T16:40:25.961Z,56.62
2018-08-07T16:42:55.173Z,56.41
2018-08-07T16:45:24.784Z,58.43
2018-08-07T16:47:56.750Z,58.86
2018-08-07T16:50:29.808Z,59.83
2018-08-07T16:53:01.473Z,60.58
2018-08-07T16:55:34.224Z,60.28
2018-08-07T16:58:03.132Z,60.98
2018-08-07T17:00:32.029Z,62.09
2018-08-07T17:03:00.787Z,62.52
2018-08-07T17:05:29.564Z,59.77
2018-08-07T17:07:58.392Z,62.58
2018-08-07T17:10:29.095Z,61.10
2018-08-07T17:12:57.881Z,60.77
2018-08-07T17:15:26.658Z,62.77
2018-08-07T17:17:55.461Z,61.06
2018-08-07T17:20:24.308Z,61.00
2018-08-07T17:22:53.594Z,59.53
2018-08-07T17:25:23.216Z,60.74
2018-08-07T17:27:52.076Z,61.14
2018-08-07T17:30:22.503Z,62.16
2018-08-07T17:32:51.297Z,61.93
2018-08-07T17:35:21.450Z,61.86
2018-08-07T17:37:51.613Z,62.65
2018-08-07T17:40:21.738Z,63.77
2018-08-07T17:42:50.469Z,63.94
2018-08-07T17:45:19.643Z,64.86
2018-08-07T17:47:48.542Z,64.46
2018-08-07T17:50:18.917Z,64.08
2018-08-07T17:52:47.696Z,64.79
2018-08-07T17:55:16.628Z,65.23
2018-08-07T17:57:45.565Z,65.79
2018-08-07T18:00:18.949Z,66.20
2018-08-07T18:02:47.699Z,66.17
2018-08-07T18:05:16.575Z,66.51
2018-08-07T18:07:47.061Z,65.96
2018-08-07T18:10:17.394Z,66.27
2018-08-07T18:12:46.253Z,66.63
2018-08-07T18:15:16.403Z,66.22
2018-08-07T18:17:49.793Z,66.58
2018-08-07T18:20:21.666Z,67.30
2018-08-07T18:22:51.636Z,68.15
2018-08-07T18:25:20.397Z,68.18
2018-08-07T18:27:49.191Z,68.66
2018-08-07T18:30:21.907Z,69.90
2018-08-07T18:32:50.669Z,70.62
2018-08-07T18:35:22.706Z,69.80
2018-08-07T18:37:51.521Z,70.98
2018-08-07T18:40:20.407Z,72.74
2018-08-07T18:42:49.630Z,71.01
2018-08-07T18:45:18.343Z,72.63
2018-08-07T18:47:47.498Z,72.49
2018-08-07T18:50:18.041Z,73.59
2018-08-07T18:52:46.757Z,73.55
2018-08-07T18:55:15.778Z,74.10
2018-08-07T18:57:45.547Z,74.34
2018-08-07T19:00:17.188Z,77.19
2018-08-07T19:02:45.936Z,78.85
2018-08-07T19:05:18.094Z,77.13
2018-08-07T19:07:46.890Z,78.11
2018-08-07T19:10:15.952Z,79.39
2018-08-07T19:12:45.561Z,80.23
2018-08-07T19:15:21.833Z,79.64
2018-08-07T19:17:50.691Z,81.42
2018-08-07T19:20:21.043Z,80.56
2018-08-07T19:22:50.289Z,81.54
2018-08-07T19:25:19.677Z,79.61
2018-08-07T19:27:48.491Z,80.04
2018-08-07T19:30:18.738Z,83.14
2018-08-07T19:32:47.453Z,84.10
2018-08-07T19:35:16.237Z,84.54
2018-08-07T19:37:45.002Z,82.97
2018-08-07T19:40:15.481Z,82.01
2018-08-07T19:42:45.057Z,82.37
2018-08-07T19:45:14.232Z,83.15
2018-08-07T19:47:43.664Z,83.32
2018-08-07T19:50:13.797Z,85.10
2018-08-07T19:52:42.649Z,84.57
2018-08-07T19:55:15.859Z,85.74
2018-08-07T19:57:44.956Z,85.90
2018-08-07T20:00:21.271Z,85.27
2018-08-07T20:02:50.550Z,86.23
2018-08-07T20:05:19.367Z,86.55
2018-08-07T20:07:48.428Z,87.09
2018-08-07T20:10:18.024Z,86.94
2018-08-07T20:12:47.369Z,88.28
2018-08-07T20:15:21.961Z,88.79
2018-08-07T20:17:51.269Z,88.41
2018-08-07T20:20:20.322Z,88.82
2018-08-07T20:22:49.097Z,89.18
2018-08-07T20:25:18.081Z,90.39
2018-08-07T20:27:46.872Z,90.38
2018-08-07T20:30:18.195Z,90.45
2018-08-07T20:32:47.864Z,90.58
2018-08-07T20:35:16.592Z,91.06
2018-08-07T20:37:45.489Z,90.48
2018-08-07T20:40:18.531Z,91.30
2018-08-07T20:42:47.613Z,91.80
2018-08-07T20:45:16.876Z,92.50
2018-08-07T20:47:45.611Z,90.99
2018-08-07T20:50:16.869Z,92.66
2018-08-07T20:52:46.141Z,93.63
2018-08-07T20:55:15.268Z,93.45
2018-08-07T20:57:44.098Z,94.54
2018-08-07T21:00:17.149Z,93.81
2018-08-07T21:02:46.046Z,94.31
2018-08-07T21:05:14.903Z,94.21
2018-08-07T21:07:43.875Z,94.73
2018-08-07T21:10:14.596Z,94.92
2018-08-07T21:12:43.712Z,96.09
2018-08-07T21:15:13.168Z,95.66
2018-08-07T21:17:42.060Z,96.72
2018-08-07T21:20:14.594Z,97.44
2018-08-07T21:22:43.579Z,97.63
2018-08-07T21:25:14.906Z,98.45
2018-08-07T21:27:44.260Z,98.27
2018-08-07T21:30:15.995Z,97.42
2018-08-07T21:32:44.850Z,97.52
2018-08-07T21:35:13.753Z,97.92
2018-08-07T21:37:42.755Z,97.24
2018-08-07T21:40:19.148Z,96.49
2018-08-07T21:42:48.527Z,96.74
2018-08-07T21:45:17.503Z,96.98
2018-08-07T21:47:46.496Z,97.28
2018-08-07T21:50:17.099Z,97.30
2018-08-07T21:52:45.960Z,96.59
2018-08-07T21:55:16.059Z,97.16
2018-08-07T21:57:44.964Z,97.21
2018-08-07T22:00:18.198Z,97.33
2018-08-07T22:02:47.596Z,96.79
2018-08-07T22:05:16.423Z,97.67
2018-08-07T22:07:45.194Z,97.99
2018-08-07T22:10:16.645Z,97.81
2018-08-07T22:12:45.771Z,98.59
2018-08-07T22:15:15.383Z,97.96
2018-08-07T22:17:44.763Z,98.35
2018-08-07T22:20:14.254Z,99.84
2018-08-07T22:22:43.182Z,98.95
2018-08-07T22:25:12.110Z,99.33
2018-08-07T22:27:40.982Z,99.52
2018-08-07T22:30:12.692Z,99.35
2018-08-07T22:32:41.503Z,100.00
2018-08-07T22:35:10.438Z,100.00
2018-08-07T22:37:39.821Z,100.00
2018-08-07T22:40:09.276Z,100.00
2018-08-07T22:42:38.148Z,100.00
2018-08-07T22:45:09.099Z,100.00
2018-08-07T22:47:37.970Z,100.00
2018-08-07T22:50:07.664Z,99.95
2018-08-07T22:52:36.424Z,100.00
2018-08-07T22:55:05.915Z,99.98
2018-08-07T22:57:34.668Z,100.00
2018-08-07T23:00:03.453Z,100.00
2018-08-07T23:02:32.169Z,100.00
2018-08-07T23:05:00.888Z,100.00
2018-08-07T23:07:29.630Z,99.28
2018-08-07T23:09:58.322Z,100.00
2018-08-07T23:12:27.024Z,100.00
2018-08-07T23:14:55.795Z,100.00
2018-08-07T23:17:24.522Z,100.00
2018-08-07T23:19:53.269Z,100.00
2018-08-07T23:22:21.998Z,100.00
2018-08-07T23:24:50.744Z,100.00
2018-08-07T23:27:19.742Z,100.00
2018-08-07T23:29:48.481Z,100.00
2018-08-07T23:32:17.244Z,100.00
2018-08-07T23:34:46.006Z,100.00
2018-08-07T23:37:14.776Z,100.00
2018-08-07T23:39:43.566Z,100.00
2018-08-07T23:42:12.332Z,100.00
2018-08-07T23:44:41.225Z,100.00
2018-08-07T23:47:10.161Z,100.00
2018-08-07T23:49:38.902Z,100.00
2018-08-07T23:52:07.753Z,100.00
2018-08-07T23:54:36.499Z,100.00
2018-08-07T23:57:05.242Z,100.00
2018-08-07T23:59:33.987Z,100.00
